EW1568 Cata ES current weather conditions

sailwx.info

Wind from 008 at 4 knots gusting 7

Air temperature 10.0° C
Dewpoint 6.3° C

Last reported at 2020-Jan-22 14:00 UTC.
Time now 2020-Jan-22 14:33 UTC

Location: N 40°28' E 000°01'.
View on Google Maps.

See reports from other nearby stations

  
Tides and Currents Weather Stations Pressure Air Temp Water Temp Dewpoint Dewpoint Depression Visibility Wind Speed Wind Dir Waves Ship Positions
date/time (UTC)wind fromknots sea level pressurealtimeterstation pressurevisibilityair tempwater tempwave heightnotes
2020-Jan-22 14:00 008 4 gusting 7 10.0
2020-Jan-22 13:51 003 5 gusting 10 10.0
2020-Jan-22 13:42 359 4 gusting 7 10.0
2020-Jan-22 13:33 004 4 gusting 6 9.4
2020-Jan-22 13:24 339 4 gusting 8 9.4
2020-Jan-22 13:15 325 5 gusting 9 9.4
2020-Jan-22 13:06 347 6 gusting 11 9.4
2020-Jan-22 12:57 005 5 gusting 9 9.4
2020-Jan-22 12:48 059 6 gusting 12 9.4
2020-Jan-22 12:39 050 5 gusting 11 9.4
2020-Jan-22 12:30 072 6 gusting 13 9.4
2020-Jan-22 12:21 068 6 gusting 12 9.4
2020-Jan-22 12:12 065 3 gusting 11 9.4
2020-Jan-22 12:03 017 2 gusting 9 8.9
2020-Jan-22 11:54 007 1 gusting 4 8.9
2020-Jan-22 11:45 010 2 gusting 6 8.9
2020-Jan-22 11:36 349 2 gusting 6 8.9
2020-Jan-22 11:27 003 2 gusting 6 8.9
2020-Jan-22 11:18 355 2 gusting 5 8.9
2020-Jan-22 11:09 011 3 gusting 5 8.3
2020-Jan-22 10:58 012 2 gusting 6 8.9
2020-Jan-22 10:49 004 2 gusting 4 8.3
2020-Jan-22 10:40 016 2 gusting 4 7.8
2020-Jan-22 10:31 014 1 gusting 4 7.8
2020-Jan-22 10:22 042 0 gusting 2 7.2
2020-Jan-22 10:13 035 0 gusting 2 6.7
2020-Jan-22 10:04 013 0 gusting 4 6.1
2020-Jan-22 09:55 316 6.1
2020-Jan-22 09:46 334 1 gusting 2 5.6
2020-Jan-22 09:37 005 1 gusting 4 5.6
2020-Jan-22 09:28 021 1 gusting 3 5.6
2020-Jan-22 09:19 017 2 gusting 5 5.0
2020-Jan-22 09:10 007 2 gusting 5 5.0
2020-Jan-22 09:01 006 2 gusting 5 5.0
2020-Jan-22 08:52 015 1 gusting 3 5.0
2020-Jan-22 08:43 004 2 gusting 3 4.4
2020-Jan-22 08:34 005 2 gusting 5 4.4
2020-Jan-22 08:25 359 2 gusting 5 4.4
2020-Jan-22 08:16 013 2 gusting 5 4.4
2020-Jan-22 08:07 025 2 gusting 5 4.4
2020-Jan-22 07:58 011 2 gusting 4 4.4
2020-Jan-22 07:49 014 2 gusting 4 4.4
2020-Jan-22 07:40 027 2 gusting 5 4.4
2020-Jan-22 07:31 022 2 gusting 4 4.4
2020-Jan-22 07:22 336 2 gusting 5 4.4
2020-Jan-22 07:13 041 0 gusting 2 4.4
2020-Jan-22 07:04 032 1 gusting 4 4.4
2020-Jan-22 06:55 006 2 gusting 5 4.4
2020-Jan-22 06:46 013 2 gusting 4 4.4
2020-Jan-22 06:37 044 1 gusting 3 4.4
2020-Jan-22 06:28 012 2 gusting 5 4.4
2020-Jan-22 06:19 341 2 gusting 6 4.4
2020-Jan-22 06:10 029 1 gusting 2 4.4
2020-Jan-22 06:01 020 1 gusting 3 4.4
2020-Jan-22 05:52 016 3 gusting 5 4.4
2020-Jan-22 05:43 012 3 gusting 7 4.4
2020-Jan-22 05:34 017 2 gusting 5 4.4
2020-Jan-22 05:25 012 2 gusting 5 4.4
2020-Jan-22 05:16 013 2 gusting 4 4.4
2020-Jan-22 05:07 014 3 gusting 6 5.0
2020-Jan-22 04:58 004 2 gusting 4 5.0
2020-Jan-22 04:49 010 3 gusting 5 5.0
2020-Jan-22 04:40 018 2 gusting 5 5.0
2020-Jan-22 04:31 021 2 gusting 6 4.4
2020-Jan-22 04:22 010 2 gusting 5 4.4
2020-Jan-22 04:13 020 2 gusting 3 4.4
2020-Jan-22 04:04 031 1 gusting 3 4.4
2020-Jan-22 03:55 014 2 gusting 4 4.4
2020-Jan-22 03:46 015 3 gusting 5 4.4
2020-Jan-22 03:37 013 2 gusting 5 4.4
2020-Jan-22 03:28 010 2 gusting 5 4.4
2020-Jan-22 03:19 003 3 gusting 5 4.4
2020-Jan-22 03:10 356 3 gusting 4 5.0
2020-Jan-22 03:01 012 2 gusting 4 5.0
2020-Jan-22 02:52 359 2 gusting 4 5.0
2020-Jan-22 02:43 007 2 gusting 4 5.0
2020-Jan-22 02:34 005 2 gusting 4 5.0
2020-Jan-22 02:25 009 2 gusting 5 5.6
2020-Jan-22 02:16 021 1 gusting 4 5.6
2020-Jan-22 02:07 002 1 gusting 3 6.1
2020-Jan-22 01:58 359 1 gusting 2 6.1
2020-Jan-22 01:49 001 1 gusting 3 6.1
2020-Jan-22 01:40 007 2 gusting 3 6.1
2020-Jan-22 01:31 029 2 gusting 8 6.1
2020-Jan-22 01:22 029 3 gusting 9 6.1
2020-Jan-22 01:13 030 4 gusting 9 6.1
2020-Jan-22 01:04 030 3 gusting 7 6.1
2020-Jan-22 00:55 031 3 gusting 7 6.1
2020-Jan-22 00:46 033 3 gusting 9 6.1
2020-Jan-22 00:37 026 4 gusting 8 6.1
2020-Jan-22 00:28 034 4 gusting 9 6.1
2020-Jan-22 00:19 031 5 gusting 11 6.1
2020-Jan-22 00:10 035 4 gusting 8 6.1
2020-Jan-22 00:01 043 4 gusting 9 6.1
2020-Jan-21 23:52 042 4 gusting 9 6.1
2020-Jan-21 23:43 056 4 gusting 8 6.1
2020-Jan-21 23:34 043 5 gusting 13 6.1
2020-Jan-21 23:25 035 3 gusting 10 6.1
2020-Jan-21 23:16 084 1 gusting 6 6.7
2020-Jan-21 23:07 070 3 gusting 6 6.7
2020-Jan-21 22:58 031 4 gusting 10 6.7
2020-Jan-21 22:49 024 4 gusting 8 6.1
2020-Jan-21 22:40 019 3 gusting 8 6.1
2020-Jan-21 22:31 030 3 gusting 7 6.1
2020-Jan-21 22:22 045 2 gusting 6 6.1
2020-Jan-21 22:13 351 2 gusting 5 5.6
2020-Jan-21 22:04 355 3 gusting 7 5.6
2020-Jan-21 21:55 342 2 gusting 6 5.6
2020-Jan-21 21:46 354 3 gusting 8 5.6
2020-Jan-21 21:37 020 3 gusting 9 5.0
2020-Jan-21 21:28 355 1 gusting 5 5.0
2020-Jan-21 21:19 330 0 gusting 3 4.4
2020-Jan-21 21:10 328 1 gusting 5 5.0
2020-Jan-21 21:01 333 1 gusting 4 4.4
2020-Jan-21 20:52 036 1 gusting 3 4.4
2020-Jan-21 20:43 021 3 gusting 7 4.4
2020-Jan-21 20:34 328 1 gusting 3 5.0
2020-Jan-21 20:16 330 1 gusting 6 5.6
2020-Jan-21 20:07 001 0 gusting 3 5.6
2020-Jan-21 19:58 003 1 gusting 3 5.6
2020-Jan-21 19:49 013 2 gusting 4 5.6
2020-Jan-21 19:40 045 2 gusting 6 5.6
2020-Jan-21 19:31 038 3 gusting 8 6.1
2020-Jan-21 19:22 046 5 gusting 10 6.1
2020-Jan-21 19:13 029 3 gusting 8 6.1
2020-Jan-21 19:04 018 1 gusting 6 5.6
2020-Jan-21 18:39 033 6 gusting 13 6.1
2020-Jan-21 18:05 018 6 gusting 11 6.1
2020-Jan-21 17:56 020 5 gusting 11 6.1
2020-Jan-21 17:47 012 3 gusting 6 6.1
2020-Jan-21 17:38 352 1 gusting 5 6.1
2020-Jan-21 17:29 333 2 gusting 6 5.6
2020-Jan-21 17:20 336 4 gusting 7 5.6
2020-Jan-21 17:11 336 4 gusting 7 5.6
2020-Jan-21 17:02 358 4 gusting 7 5.6
2020-Jan-21 16:53 349 5 gusting 9 5.6
2020-Jan-21 16:44 339 5 gusting 9 5.0
2020-Jan-21 16:35 344 6 gusting 10 5.0
2020-Jan-21 16:26 354 5 gusting 11 5.0
2020-Jan-21 16:17 350 4 gusting 8 5.6
2020-Jan-21 15:36 138 5 gusting 13 6.1
2020-Jan-21 15:27 149 6 gusting 13 6.1
2020-Jan-21 15:18 133 2 gusting 10 6.1
2020-Jan-21 15:01 190 3 gusting 11 5.6
2020-Jan-21 14:44 192 7 gusting 18 5.6
2020-Jan-21 14:35 175 10 gusting 26 5.6
2020-Jan-21 14:26 125 12 gusting 26 7.8
2020-Jan-21 14:17 082 15 gusting 29 9.4
2020-Jan-21 14:08 079 15 gusting 30 9.4
2020-Jan-21 13:59 084 13 gusting 33 9.4
2020-Jan-21 13:50 078 13 gusting 27 9.4
2020-Jan-21 13:41 078 13 gusting 24 9.4
2020-Jan-21 13:32 085 13 gusting 30 9.4
2020-Jan-21 13:23 083 17 gusting 31 9.4
2020-Jan-21 13:14 070 14 gusting 26 8.9
2020-Jan-21 13:05 076 11 gusting 19 8.9
2020-Jan-21 12:56 078 12 gusting 24 9.4
2020-Jan-21 12:47 084 14 gusting 35 9.4
2020-Jan-21 12:38 076 13 gusting 24 8.9
2020-Jan-21 12:29 079 14 gusting 27 8.9
2020-Jan-21 12:20 084 13 gusting 24 8.9
2020-Jan-21 12:11 077 15 gusting 29 8.9
2020-Jan-21 12:02 077 14 gusting 28 8.9
2020-Jan-21 11:53 078 14 gusting 28 9.4
2020-Jan-21 11:44 066 13 gusting 25 8.9
2020-Jan-21 11:35 061 17 gusting 31 9.4
2020-Jan-21 11:26 075 9 gusting 26 8.9
2020-Jan-21 11:06 076 10 gusting 20 8.9
2020-Jan-21 10:57 078 13 gusting 26 8.9
2020-Jan-21 10:38 059 6 gusting 16 7.8
2020-Jan-21 10:29 071 7 gusting 21 7.8
2020-Jan-21 10:20 058 5 gusting 21 7.2
2020-Jan-21 10:11 354 3 gusting 8 6.1
2020-Jan-21 10:02 002 4 gusting 9 6.1
2020-Jan-21 07:32 012 9 gusting 16 4.4
2020-Jan-21 07:23 005 11 gusting 23 4.4
2020-Jan-21 07:14 011 6 gusting 15 3.3
2020-Jan-21 07:05 020 6 gusting 17 4.4
2020-Jan-21 06:56 006 7 gusting 17 4.4
2020-Jan-21 06:47 012 8 gusting 16 3.9
2020-Jan-21 06:38 009 7 gusting 19 3.3
2020-Jan-21 06:29 014 6 gusting 17 3.3
2020-Jan-21 06:20 339 8 gusting 19 3.9
2020-Jan-21 06:11 343 8 gusting 21 3.3
2020-Jan-21 06:02 319 13 gusting 25 3.3
2020-Jan-21 04:52 318 16 gusting 32 1.7
2020-Jan-21 04:21 326 13 gusting 23 2.2
2020-Jan-21 04:12 336 13 gusting 24 2.2
2020-Jan-21 04:03 339 9 gusting 16 2.2
2020-Jan-21 03:54 315 13 gusting 22 1.7
2020-Jan-21 03:45 321 15 gusting 26 2.2
2020-Jan-21 03:36 327 13 gusting 22 2.2
2020-Jan-21 03:27 337 13 gusting 20 2.8
2020-Jan-21 03:18 329 12 gusting 24 1.7
2020-Jan-21 03:09 324 12 gusting 22 1.1
2020-Jan-21 03:00 324 13 gusting 22 1.7
2020-Jan-21 02:51 334 13 gusting 23 1.7
2020-Jan-21 02:42 324 13 gusting 21 1.7
2020-Jan-21 02:33 322 13 gusting 25 1.7
2020-Jan-21 02:24 327 14 gusting 26 1.7
2020-Jan-21 02:15 323 13 gusting 21 1.7
2020-Jan-21 02:06 335 14 gusting 23 1.7
2020-Jan-21 01:57 333 14 gusting 26 2.2
2020-Jan-21 01:48 336 13 gusting 26 2.2
2020-Jan-21 01:39 331 13 gusting 24 2.8
2020-Jan-21 01:30 329 12 gusting 22 2.2
2020-Jan-21 01:21 324 13 gusting 22 2.2
2020-Jan-21 01:12 328 13 gusting 21 2.2
2020-Jan-21 01:03 334 12 gusting 22 2.8
2020-Jan-21 00:54 335 11 gusting 19 2.8
2020-Jan-21 00:45 347 11 gusting 21 3.3
2020-Jan-21 00:36 010 8 gusting 16 2.8
2020-Jan-21 00:27 355 9 gusting 17 2.8
2020-Jan-21 00:18 355 8 gusting 14 3.3
2020-Jan-21 00:09 355 9 gusting 19 3.3
2020-Jan-21 00:00 005 7 gusting 17 2.8
2020-Jan-20 23:51 012 8 gusting 14 2.8
2020-Jan-20 23:42 002 6 gusting 14 2.8
2020-Jan-20 23:33 325 10 gusting 19 2.2
2020-Jan-20 23:24 318 9 gusting 18 2.8
2020-Jan-20 23:15 348 7 gusting 15 3.3
2020-Jan-20 23:06 010 10 gusting 19 3.3
2020-Jan-20 22:57 017 13 gusting 22 3.3
2020-Jan-20 22:48 015 12 gusting 23 3.9
2020-Jan-20 22:39 018 10 gusting 18 3.9
2020-Jan-20 22:30 018 12 gusting 22 3.9
2020-Jan-20 22:21 014 12 gusting 25 3.9
2020-Jan-20 22:12 022 8 gusting 18 3.3
2020-Jan-20 22:03 012 8 gusting 19 3.3
2020-Jan-20 21:54 358 6 gusting 13 2.8
2020-Jan-20 21:45 004 6 gusting 14 2.8
2020-Jan-20 21:36 353 6 gusting 19 2.2
2020-Jan-20 21:27 346 9 gusting 18 2.2
2020-Jan-20 21:18 331 13 gusting 22 2.2
2020-Jan-20 21:09 328 13 gusting 21 2.2
2020-Jan-20 21:00 330 11 gusting 23 2.2
2020-Jan-20 20:51 336 12 gusting 21 2.8
2020-Jan-20 20:42 340 12 gusting 23 2.8
2020-Jan-20 20:30 354 11 gusting 21 2.8
2020-Jan-20 20:21 357 8 gusting 19 2.8
2020-Jan-20 20:12 005 8 gusting 18 2.8
2020-Jan-20 20:03 355 10 gusting 19 2.8
2020-Jan-20 19:54 003 7 gusting 16 2.2
2020-Jan-20 19:45 358 9 gusting 17 2.2
2020-Jan-20 19:36 354 9 gusting 18 2.8
2020-Jan-20 19:27 356 8 gusting 15 2.2
2020-Jan-20 19:18 002 8 gusting 14 2.2
2020-Jan-20 19:09 010 6 gusting 12 2.2
2020-Jan-20 19:00 008 8 gusting 16 2.2
2020-Jan-20 18:51 353 8 gusting 16 2.2
2020-Jan-20 18:42 009 8 gusting 16 2.2
2020-Jan-20 18:33 344 10 gusting 19 2.2
2020-Jan-20 18:24 350 9 gusting 17 2.2
2020-Jan-20 18:15 356 8 gusting 20 2.2
2020-Jan-20 18:06 337 13 gusting 24 2.2
2020-Jan-20 17:57 330 13 gusting 24 2.2
2020-Jan-20 17:48 332 13 gusting 22 1.7
2020-Jan-20 17:39 338 13 gusting 19 1.7
2020-Jan-20 17:30 338 12 gusting 24 1.7
2020-Jan-20 17:21 335 13 gusting 24 1.7
2020-Jan-20 17:12 337 13 gusting 26 1.7
2020-Jan-20 17:03 337 15 gusting 28 2.2
2020-Jan-20 16:54 340 13 gusting 24 2.2
2020-Jan-20 16:45 344 13 gusting 25 1.7
2020-Jan-20 16:36 341 13 gusting 25 1.7
2020-Jan-20 16:27 334 13 gusting 26 1.1
2020-Jan-20 16:18 336 14 gusting 23 0.6
2020-Jan-20 16:09 338 14 gusting 27 0.6
2020-Jan-20 16:00 336 14 gusting 27 0.6
2020-Jan-20 15:40 328 14 gusting 26 0.6
2020-Jan-20 15:31 334 15 gusting 26 0.6
2020-Jan-20 15:22 339 13 gusting 24 0.6
2020-Jan-20 15:13 336 15 gusting 26 0.6
2020-Jan-20 15:04 335 15 gusting 24 0.6
2020-Jan-20 14:55 333 14 gusting 25 -0.0
2020-Jan-20 14:46 324 15 gusting 25 -0.0
2020-Jan-20 14:37 325 14 gusting 24 -0.0
2020-Jan-20 14:28 322 14 gusting 22 -0.0
2020-Jan-20 14:19 329 14 gusting 25 -0.0
2020-Jan-20 14:10 335 13 gusting 23 -0.0
2020-Jan-20 14:01 341 12 gusting 19 -0.0